Wind From: 10-12-2017 19:04 Until: 11-12-2017 16:00 warning for: Wind Level: Orange info button

Power and phone distribution networks may be disrupted for relatively long periods., Roofs and chimneys can be damaged. , Tree branches may break. , Vehicles can be deported. , Traffic may be disrupted, particularly on secondary roads in forest areas. Limit your trips. , Limit your speed in highway driving, especially if you drive a vehicle or hitch sensitive to wind. , Do not go for walks in forests or along the coast., In town, be vigilant against possible falling objects., Do not work on roofs and do not touch any electrical line fallen on the ground., Store or secure sensitive objects to wind or likely to be damaged., Always install power generators outside buildings. 


Meteo18 Weather Cam more information Meteo18 Weather Cam


Thunder radar more information blitzortung!


Rain radar more information rain snow radar


Visit our other weather sites:

Template documentation
and downloads

And another site



Weather Underground History page Text

Daily Summary for April 1, 2017 Units:  Both    English   Metric
« Previous Day
Next Day »
Daily Weekly Monthly Yearly Custom
  High: Low: Average:
Temperature: 58.1 °F /  14.5 °C 46.6 °F /  8.1 °C 51.4 °F /  10.8 °C
Dew Point: 50.7 °F /  10.4 °C 42.8 °F /  6.0 °C 46.8 °F /  8.2 °C
Humidity: 96 % 59 % 85 %
Wind Speed: 12 mph /  19.3 km/h - 3.2 mph /  5.1 km/h
Wind Gust: 22 mph /  35.4 km/h - -
Wind:- - SW
Pressure: 30 in /  1016.5 hPa 29.9 in /  1013.8 hPa -
Precipitation: 0.23 in /  5.8 mm    
Historical Graphs
 
 
Tabular Data for April 1, 2017
Time Temperature Dew Point Pressure Wind Wind Speed Wind Gust Humidity Rainfall Rate (Hourly)
00:02 52.2 °F /  11.2 °C 50.7 °F /  10.4 °C 30 in /  1015.5 hPa SW 3 mph /  4.8 km/h 6 mph /  9.7 km/h 95 % 0.1 in /  2.5 mm
00:12 52.2 °F /  11.2 °C 50.7 °F /  10.4 °C 30 in /  1015.5 hPa SW 2 mph /  3.2 km/h 6 mph /  9.7 km/h 95 % 0.09 in /  2.3 mm
00:17 52.2 °F /  11.2 °C 50.7 °F /  10.4 °C 30 in /  1015.5 hPa SSW 1 mph /  1.6 km/h 6 mph /  9.7 km/h 95 % 0.09 in /  2.3 mm
00:22 52.2 °F /  11.2 °C 50.7 °F /  10.4 °C 30 in /  1015.5 hPa Calm   6 mph /  9.7 km/h 95 % 0.09 in /  2.3 mm
00:27 52 °F /  11.1 °C 50.5 °F /  10.3 °C 30 in /  1015.5 hPa WNW 2 mph /  3.2 km/h 3 mph /  4.8 km/h 95 % 0.08 in /  2.0 mm
00:32 51.6 °F /  10.9 °C 50 °F /  10.0 °C 30 in /  1015.5 hPa West 3 mph /  4.8 km/h 3 mph /  4.8 km/h 94 % 0.08 in /  2.0 mm
00:42 51.1 °F /  10.6 °C 49.5 °F /  9.7 °C 30 in /  1015.8 hPa WNW 1 mph /  1.6 km/h 7 mph /  11.3 km/h 94 % 0.06 in /  1.5 mm
00:52 50.5 °F /  10.3 °C 48.9 °F /  9.4 °C 30 in /  1015.8 hPa Calm   7 mph /  11.3 km/h 94 % 0.1 in /  2.5 mm
01:02 50.4 °F /  10.2 °C 48.7 °F /  9.3 °C 30 in /  1015.5 hPa Calm   3 mph /  4.8 km/h 94 % 0.12 in /  3.0 mm
01:07 50.2 °F /  10.1 °C 48.6 °F /  9.2 °C 30 in /  1015.8 hPa Calm   2 mph /  3.2 km/h 94 % 0.13 in /  3.3 mm
01:12 50.2 °F /  10.1 °C 48.6 °F /  9.2 °C 30 in /  1015.8 hPa Calm   2 mph /  3.2 km/h 94 % 0.13 in /  3.3 mm
01:17 50.2 °F /  10.1 °C 48.6 °F /  9.2 °C 30 in /  1015.8 hPa SSW 1 mph /  1.6 km/h 1 mph /  1.6 km/h 94 % 0.14 in /  3.6 mm
01:22 50.2 °F /  10.1 °C 48.7 °F /  9.3 °C 30 in /  1015.8 hPa Calm   2 mph /  3.2 km/h 95 % 0.13 in /  3.3 mm
01:32 50.4 °F /  10.2 °C 48.9 °F /  9.4 °C 30 in /  1015.5 hPa Calm   2 mph /  3.2 km/h 95 % 0.14 in /  3.6 mm
01:42 50.4 °F /  10.2 °C 48.9 °F /  9.4 °C 30 in /  1015.5 hPa SSE 1 mph /  1.6 km/h 2 mph /  3.2 km/h 95 % 0.15 in /  3.8 mm
01:47 50.5 °F /  10.3 °C 49.1 °F /  9.5 °C 30 in /  1015.5 hPa Calm   2 mph /  3.2 km/h 95 % 0.1 in /  2.5 mm
01:52 50.5 °F /  10.3 °C 49.1 °F /  9.5 °C 30 in /  1015.5 hPa SW 3 mph /  4.8 km/h 3 mph /  4.8 km/h 95 % 0.1 in /  2.5 mm
01:57 50.5 °F /  10.3 °C 49.1 °F /  9.5 °C 30 in /  1015.1 hPa South 2 mph /  3.2 km/h 3 mph /  4.8 km/h 95 % 0.08 in /  2.0 mm
02:02 50.5 °F /  10.3 °C 49.1 °F /  9.5 °C 30 in /  1015.1 hPa SSW 1 mph /  1.6 km/h 4 mph /  6.4 km/h 95 % 0.06 in /  1.5 mm
02:07 50.5 °F /  10.3 °C 49.5 °F /  9.7 °C 30 in /  1015.5 hPa SSW 2 mph /  3.2 km/h 4 mph /  6.4 km/h 96 % 0.06 in /  1.5 mm
02:12 50.4 °F /  10.2 °C 49.3 °F /  9.6 °C 30 in /  1015.5 hPa South 2 mph /  3.2 km/h 4 mph /  6.4 km/h 96 % 0.06 in /  1.5 mm
02:17 50.4 °F /  10.2 °C 49.3 °F /  9.6 °C 30 in /  1015.5 hPa SSW 1 mph /  1.6 km/h 3 mph /  4.8 km/h 96 % 0.05 in /  1.3 mm
02:22 50.4 °F /  10.2 °C 49.3 °F /  9.6 °C 30 in /  1015.5 hPa SW 2 mph /  3.2 km/h 3 mph /  4.8 km/h 96 % 0.05 in /  1.3 mm
02:32 50.4 °F /  10.2 °C 49.3 °F /  9.6 °C 30 in /  1015.1 hPa Calm   4 mph /  6.4 km/h 96 % 0.04 in /  1.0 mm
02:42 50.4 °F /  10.2 °C 49.3 °F /  9.6 °C 30 in /  1015.1 hPa South 2 mph /  3.2 km/h 4 mph /  6.4 km/h 96 % 0.03 in /  0.8 mm
02:47 50.2 °F /  10.1 °C 49.1 °F /  9.5 °C 30 in /  1015.1 hPa SSW 2 mph /  3.2 km/h 4 mph /  6.4 km/h 96 % 0.03 in /  0.8 mm
02:52 50.4 °F /  10.2 °C 49.3 °F /  9.6 °C 30 in /  1014.8 hPa South 2 mph /  3.2 km/h 6 mph /  9.7 km/h 96 % 0.03 in /  0.8 mm
02:57 50.4 °F /  10.2 °C 49.3 °F /  9.6 °C 30 in /  1014.8 hPa SSW 1 mph /  1.6 km/h 6 mph /  9.7 km/h 96 % 0.03 in /  0.8 mm
03:02 50.4 °F /  10.2 °C 49.3 °F /  9.6 °C 30 in /  1014.8 hPa Calm   6 mph /  9.7 km/h 96 % 0.03 in /  0.8 mm
03:07 50.4 °F /  10.2 °C 49.3 °F /  9.6 °C 30 in /  1014.8 hPa SSW 3 mph /  4.8 km/h 4 mph /  6.4 km/h 96 % 0.02 in /  0.5 mm
03:12 50.4 °F /  10.2 °C 49.3 °F /  9.6 °C 30 in /  1014.8 hPa SW 3 mph /  4.8 km/h 6 mph /  9.7 km/h 96 % 0.02 in /  0.5 mm
03:17 50.4 °F /  10.2 °C 49.3 °F /  9.6 °C 30 in /  1014.8 hPa SSW 4 mph /  6.4 km/h 7 mph /  11.3 km/h 96 % 0.02 in /  0.5 mm
03:22 50.2 °F /  10.1 °C 49.1 °F /  9.5 °C 30 in /  1014.8 hPa SSW 5 mph /  8.0 km/h 7 mph /  11.3 km/h 96 % 0.01 in /  0.3 mm
03:27 50.2 °F /  10.1 °C 49.1 °F /  9.5 °C 30 in /  1014.4 hPa SSW 1 mph /  1.6 km/h 7 mph /  11.3 km/h 96 % 0.01 in /  0.3 mm
03:32 50.2 °F /  10.1 °C 49.1 °F /  9.5 °C 30 in /  1014.4 hPa SW 2 mph /  3.2 km/h 7 mph /  11.3 km/h 96 % 0.01 in /  0.3 mm
03:37 50.2 °F /  10.1 °C 49.1 °F /  9.5 °C 30 in /  1014.4 hPa SW 1 mph /  1.6 km/h 6 mph /  9.7 km/h 96 % 0.01 in /  0.3 mm
03:42 50 °F /  10.0 °C 48.9 °F /  9.4 °C 30 in /  1014.4 hPa South 1 mph /  1.6 km/h 5 mph /  8.0 km/h 96 % 0 in /  0.0 mm
03:47 50 °F /  10.0 °C 48.9 °F /  9.4 °C 30 in /  1014.4 hPa SW 3 mph /  4.8 km/h 5 mph /  8.0 km/h 96 % 0 in /  0.0 mm
03:52 49.8 °F /  9.9 °C 48.7 °F /  9.3 °C 30 in /  1014.4 hPa SSW 4 mph /  6.4 km/h 4 mph /  6.4 km/h 96 % 0 in /  0.0 mm
03:57 49.8 °F /  9.9 °C 48.7 °F /  9.3 °C 30 in /  1014.4 hPa SSW 6 mph /  9.7 km/h 6 mph /  9.7 km/h 96 % 0 in /  0.0 mm
04:02 49.8 °F /  9.9 °C 48.7 °F /  9.3 °C 30 in /  1014.4 hPa SSW 4 mph /  6.4 km/h 8 mph /  12.9 km/h 96 % 0 in /  0.0 mm
04:07 49.6 °F /  9.8 °C 48.6 °F /  9.2 °C 30 in /  1014.4 hPa SSW 4 mph /  6.4 km/h 8 mph /  12.9 km/h 96 % 0 in /  0.0 mm
04:12 49.6 °F /  9.8 °C 48.6 °F /  9.2 °C 30 in /  1014.4 hPa SSW 5 mph /  8.0 km/h 8 mph /  12.9 km/h 96 % 0 in /  0.0 mm
04:17 49.6 °F /  9.8 °C 48.6 °F /  9.2 °C 30 in /  1014.4 hPa SSW 2 mph /  3.2 km/h 7 mph /  11.3 km/h 96 % 0 in /  0.0 mm
04:22 49.6 °F /  9.8 °C 48.6 °F /  9.2 °C 30 in /  1014.4 hPa SSW 3 mph /  4.8 km/h 6 mph /  9.7 km/h 96 % 0 in /  0.0 mm
04:27 49.6 °F /  9.8 °C 48.6 °F /  9.2 °C 30 in /  1014.4 hPa SW 4 mph /  6.4 km/h 7 mph /  11.3 km/h 96 % 0 in /  0.0 mm
04:32 49.5 °F /  9.7 °C 48.4 °F /  9.1 °C 30 in /  1014.4 hPa South 4 mph /  6.4 km/h 7 mph /  11.3 km/h 96 % 0 in /  0.0 mm
04:42 49.3 °F /  9.6 °C 48.2 °F /  9.0 °C 30 in /  1014.4 hPa SW 3 mph /  4.8 km/h 7 mph /  11.3 km/h 96 % 0 in /  0.0 mm
04:47 49.3 °F /  9.6 °C 48.2 °F /  9.0 °C 30 in /  1014.4 hPa SSW 6 mph /  9.7 km/h 8 mph /  12.9 km/h 96 % 0 in /  0.0 mm
04:52 49.3 °F /  9.6 °C 48.2 °F /  9.0 °C 29.9 in /  1014.1 hPa SSW 4 mph /  6.4 km/h 8 mph /  12.9 km/h 96 % 0 in /  0.0 mm
04:57 49.3 °F /  9.6 °C 48.2 °F /  9.0 °C 29.9 in /  1014.1 hPa WSW 8 mph /  12.9 km/h 8 mph /  12.9 km/h 96 % 0 in /  0.0 mm
05:02 49.3 °F /  9.6 °C 48.2 °F /  9.0 °C 29.9 in /  1014.1 hPa SW 5 mph /  8.0 km/h 8 mph /  12.9 km/h 96 % 0 in /  0.0 mm
05:07 49.3 °F /  9.6 °C 48.2 °F /  9.0 °C 29.9 in /  1014.1 hPa SW 4 mph /  6.4 km/h 9 mph /  14.5 km/h 96 % 0 in /  0.0 mm
05:12 49.3 °F /  9.6 °C 48.2 °F /  9.0 °C 29.9 in /  1014.1 hPa SW 5 mph /  8.0 km/h 9 mph /  14.5 km/h 96 % 0 in /  0.0 mm
05:17 49.3 °F /  9.6 °C 48.2 °F /  9.0 °C 29.9 in /  1014.1 hPa SW 6 mph /  9.7 km/h 8 mph /  12.9 km/h 96 % 0 in /  0.0 mm
05:22 49.3 °F /  9.6 °C 48.2 °F /  9.0 °C 29.9 in /  1014.1 hPa SW 4 mph /  6.4 km/h 8 mph /  12.9 km/h 96 % 0 in /  0.0 mm
05:27 49.3 °F /  9.6 °C 48.2 °F /  9.0 °C 29.9 in /  1014.1 hPa SW 2 mph /  3.2 km/h 9 mph /  14.5 km/h 96 % 0 in /  0.0 mm
05:32 49.3 °F /  9.6 °C 48.2 °F /  9.0 °C 29.9 in /  1014.1 hPa SSW 4 mph /  6.4 km/h 9 mph /  14.5 km/h 96 % 0 in /  0.0 mm
05:37 49.3 °F /  9.6 °C 48.2 °F /  9.0 °C 29.9 in /  1014.1 hPa SW 3 mph /  4.8 km/h 8 mph /  12.9 km/h 96 % 0 in /  0.0 mm
05:42 49.3 °F /  9.6 °C 48.2 °F /  9.0 °C 29.9 in /  1014.1 hPa SW 3 mph /  4.8 km/h 8 mph /  12.9 km/h 96 % 0 in /  0.0 mm
05:47 49.3 °F /  9.6 °C 48.2 °F /  9.0 °C 29.9 in /  1014.1 hPa SW 2 mph /  3.2 km/h 8 mph /  12.9 km/h 96 % 0 in /  0.0 mm
05:52 49.3 °F /  9.6 °C 48.2 °F /  9.0 °C 29.9 in /  1014.1 hPa SW 2 mph /  3.2 km/h 8 mph /  12.9 km/h 96 % 0 in /  0.0 mm
05:57 49.1 °F /  9.5 °C 48 °F /  8.9 °C 29.9 in /  1014.1 hPa SSW 2 mph /  3.2 km/h 8 mph /  12.9 km/h 96 % 0 in /  0.0 mm
06:02 49.1 °F /  9.5 °C 48 °F /  8.9 °C 29.9 in /  1014.1 hPa WSW 4 mph /  6.4 km/h 8 mph /  12.9 km/h 96 % 0 in /  0.0 mm
06:07 48.9 °F /  9.4 °C 47.5 °F /  8.6 °C 29.9 in /  1014.1 hPa SW 5 mph /  8.0 km/h 6 mph /  9.7 km/h 95 % 0 in /  0.0 mm
06:12 48.9 °F /  9.4 °C 47.5 °F /  8.6 °C 29.9 in /  1014.1 hPa WSW 7 mph /  11.3 km/h 7 mph /  11.3 km/h 95 % 0 in /  0.0 mm
06:17 48.9 °F /  9.4 °C 47.5 °F /  8.6 °C 29.9 in /  1014.1 hPa WSW 4 mph /  6.4 km/h 6 mph /  9.7 km/h 95 % 0 in /  0.0 mm
06:22 48.9 °F /  9.4 °C 47.5 °F /  8.6 °C 29.9 in /  1014.1 hPa South 2 mph /  3.2 km/h 11 mph /  17.7 km/h 95 % 0 in /  0.0 mm
06:27 48.9 °F /  9.4 °C 47.5 °F /  8.6 °C 29.9 in /  1014.1 hPa SW 2 mph /  3.2 km/h 11 mph /  17.7 km/h 95 % 0 in /  0.0 mm
06:32 48.9 °F /  9.4 °C 47.5 °F /  8.6 °C 29.9 in /  1014.1 hPa SSW 2 mph /  3.2 km/h 6 mph /  9.7 km/h 95 % 0 in /  0.0 mm
06:37 48.9 °F /  9.4 °C 47.5 °F /  8.6 °C 29.9 in /  1014.1 hPa South 2 mph /  3.2 km/h 6 mph /  9.7 km/h 95 % 0 in /  0.0 mm
06:42 48.9 °F /  9.4 °C 47.5 °F /  8.6 °C 29.9 in /  1014.1 hPa WSW 4 mph /  6.4 km/h 6 mph /  9.7 km/h 95 % 0 in /  0.0 mm
06:47 48.7 °F /  9.3 °C 47.3 °F /  8.5 °C 29.9 in /  1014.1 hPa SW 3 mph /  4.8 km/h 6 mph /  9.7 km/h 95 % 0 in /  0.0 mm
06:57 48.7 °F /  9.3 °C 47.3 °F /  8.5 °C 29.9 in /  1014.1 hPa SSW 2 mph /  3.2 km/h 6 mph /  9.7 km/h 95 % 0 in /  0.0 mm
07:02 48.7 °F /  9.3 °C 47.3 °F /  8.5 °C 29.9 in /  1014.1 hPa SW 2 mph /  3.2 km/h 6 mph /  9.7 km/h 95 % 0 in /  0.0 mm
07:07 48.7 °F /  9.3 °C 47.3 °F /  8.5 °C 29.9 in /  1014.1 hPa South 2 mph /  3.2 km/h 5 mph /  8.0 km/h 95 % 0 in /  0.0 mm
07:12 48.6 °F /  9.2 °C 47.1 °F /  8.4 °C 29.9 in /  1014.1 hPa SW 2 mph /  3.2 km/h 5 mph /  8.0 km/h 95 % 0 in /  0.0 mm
07:17 48.6 °F /  9.2 °C 47.1 °F /  8.4 °C 29.9 in /  1014.1 hPa SW 1 mph /  1.6 km/h 5 mph /  8.0 km/h 95 % 0 in /  0.0 mm
07:22 48.6 °F /  9.2 °C 47.1 °F /  8.4 °C 29.9 in /  1014.1 hPa South 1 mph /  1.6 km/h 5 mph /  8.0 km/h 95 % 0 in /  0.0 mm
07:27 48.4 °F /  9.1 °C 46.9 °F /  8.3 °C 29.9 in /  1014.1 hPa WSW 3 mph /  4.8 km/h 4 mph /  6.4 km/h 95 % 0 in /  0.0 mm
07:32 48.4 °F /  9.1 °C 46.9 °F /  8.3 °C 29.9 in /  1014.1 hPa WSW 3 mph /  4.8 km/h 4 mph /  6.4 km/h 95 % 0 in /  0.0 mm
07:37 48.4 °F /  9.1 °C 46.9 °F /  8.3 °C 29.9 in /  1014.1 hPa West 3 mph /  4.8 km/h 7 mph /  11.3 km/h 95 % 0 in /  0.0 mm
07:42 48.4 °F /  9.1 °C 46.9 °F /  8.3 °C 29.9 in /  1014.1 hPa WSW 2 mph /  3.2 km/h 7 mph /  11.3 km/h 95 % 0 in /  0.0 mm
07:47 48.2 °F /  9.0 °C 46.8 °F /  8.2 °C 29.9 in /  1014.1 hPa West 4 mph /  6.4 km/h 7 mph /  11.3 km/h 95 % 0 in /  0.0 mm
07:52 48.2 °F /  9.0 °C 46.8 °F /  8.2 °C 30 in /  1014.4 hPa WSW 3 mph /  4.8 km/h 7 mph /  11.3 km/h 95 % 0 in /  0.0 mm
07:57 48 °F /  8.9 °C 46.6 °F /  8.1 °C 30 in /  1014.4 hPa West 6 mph /  9.7 km/h 6 mph /  9.7 km/h 95 % 0 in /  0.0 mm
08:02 48 °F /  8.9 °C 46.4 °F /  8.0 °C 30 in /  1014.4 hPa SW 3 mph /  4.8 km/h 6 mph /  9.7 km/h 94 % 0 in /  0.0 mm
08:12 48.2 °F /  9.0 °C 46.6 °F /  8.1 °C 30 in /  1014.4 hPa Calm   6 mph /  9.7 km/h 94 % 0 in /  0.0 mm
08:17 48.2 °F /  9.0 °C 46.6 °F /  8.1 °C 30 in /  1014.4 hPa WSW 3 mph /  4.8 km/h 5 mph /  8.0 km/h 94 % 0 in /  0.0 mm
08:22 48.2 °F /  9.0 °C 46.6 °F /  8.1 °C 30 in /  1014.4 hPa SW 2 mph /  3.2 km/h 5 mph /  8.0 km/h 94 % 0 in /  0.0 mm
08:27 48.2 °F /  9.0 °C 46.6 °F /  8.1 °C 30 in /  1014.4 hPa WSW 2 mph /  3.2 km/h 5 mph /  8.0 km/h 94 % 0 in /  0.0 mm
08:32 48.2 °F /  9.0 °C 46.6 °F /  8.1 °C 30 in /  1014.4 hPa WSW 4 mph /  6.4 km/h 5 mph /  8.0 km/h 94 % 0 in /  0.0 mm
08:37 48 °F /  8.9 °C 46.4 °F /  8.0 °C 30 in /  1014.4 hPa WSW 4 mph /  6.4 km/h 8 mph /  12.9 km/h 94 % 0 in /  0.0 mm
08:42 48 °F /  8.9 °C 46.4 °F /  8.0 °C 30 in /  1014.4 hPa WSW 2 mph /  3.2 km/h 8 mph /  12.9 km/h 94 % 0 in /  0.0 mm
08:47 48.2 °F /  9.0 °C 46.6 °F /  8.1 °C 30 in /  1014.8 hPa WSW 1 mph /  1.6 km/h 6 mph /  9.7 km/h 94 % 0 in /  0.0 mm
08:52 48 °F /  8.9 °C 46.4 °F /  8.0 °C 30 in /  1014.8 hPa SW 2 mph /  3.2 km/h 6 mph /  9.7 km/h 94 % 0 in /  0.0 mm
08:57 48.2 °F /  9.0 °C 46.6 °F /  8.1 °C 30 in /  1014.8 hPa WSW 1 mph /  1.6 km/h 6 mph /  9.7 km/h 94 % 0 in /  0.0 mm
09:02 48.4 °F /  9.1 °C 46.8 °F /  8.2 °C 30 in /  1014.8 hPa SW 2 mph /  3.2 km/h 6 mph /  9.7 km/h 94 % 0 in /  0.0 mm
09:07 48.4 °F /  9.1 °C 46.8 °F /  8.2 °C 30 in /  1014.8 hPa West 3 mph /  4.8 km/h 5 mph /  8.0 km/h 94 % 0 in /  0.0 mm
09:12 48.2 °F /  9.0 °C 46.6 °F /  8.1 °C 30 in /  1014.8 hPa WSW 4 mph /  6.4 km/h 5 mph /  8.0 km/h 94 % 0 in /  0.0 mm
09:17 48.2 °F /  9.0 °C 46.2 °F /  7.9 °C 30 in /  1014.8 hPa WSW 5 mph /  8.0 km/h 7 mph /  11.3 km/h 93 % 0 in /  0.0 mm
09:22 48.4 °F /  9.1 °C 46.4 °F /  8.0 °C 30 in /  1014.8 hPa WSW 5 mph /  8.0 km/h 7 mph /  11.3 km/h 93 % 0 in /  0.0 mm
09:32 48.4 °F /  9.1 °C 46.4 °F /  8.0 °C 30 in /  1014.8 hPa West 2 mph /  3.2 km/h 7 mph /  11.3 km/h 93 % 0 in /  0.0 mm
09:37 48.4 °F /  9.1 °C 46.4 °F /  8.0 °C 30 in /  1014.8 hPa SSW 2 mph /  3.2 km/h 6 mph /  9.7 km/h 93 % 0 in /  0.0 mm
09:42 48.4 °F /  9.1 °C 46.4 °F /  8.0 °C 30 in /  1014.8 hPa SW 2 mph /  3.2 km/h 6 mph /  9.7 km/h 93 % 0 in /  0.0 mm
09:47 48.6 °F /  9.2 °C 46.6 °F /  8.1 °C 30 in /  1014.8 hPa WSW 2 mph /  3.2 km/h 7 mph /  11.3 km/h 93 % 0 in /  0.0 mm
09:52 48.6 °F /  9.2 °C 46.6 °F /  8.1 °C 30 in /  1014.8 hPa West 1 mph /  1.6 km/h 7 mph /  11.3 km/h 93 % 0 in /  0.0 mm
09:57 48.7 °F /  9.3 °C 46.6 °F /  8.1 °C 30 in /  1015.1 hPa SW 6 mph /  9.7 km/h 10 mph /  16.1 km/h 92 % 0 in /  0.0 mm
10:02 48.7 °F /  9.3 °C 46.6 °F /  8.1 °C 30 in /  1015.1 hPa West 4 mph /  6.4 km/h 10 mph /  16.1 km/h 92 % 0 in /  0.0 mm
10:07 48.7 °F /  9.3 °C 46.6 °F /  8.1 °C 30 in /  1015.1 hPa SW 2 mph /  3.2 km/h 9 mph /  14.5 km/h 92 % 0 in /  0.0 mm
10:12 48.9 °F /  9.4 °C 46.8 °F /  8.2 °C 30 in /  1015.1 hPa WSW 5 mph /  8.0 km/h 9 mph /  14.5 km/h 92 % 0 in /  0.0 mm
10:17 49.1 °F /  9.5 °C 46.9 °F /  8.3 °C 30 in /  1015.1 hPa WSW 4 mph /  6.4 km/h 9 mph /  14.5 km/h 92 % 0 in /  0.0 mm
10:22 49.3 °F /  9.6 °C 46.8 °F /  8.2 °C 30 in /  1015.1 hPa SW 5 mph /  8.0 km/h 7 mph /  11.3 km/h 91 % 0 in /  0.0 mm
10:27 49.3 °F /  9.6 °C 46.8 °F /  8.2 °C 30 in /  1015.5 hPa SW 6 mph /  9.7 km/h 10 mph /  16.1 km/h 91 % 0 in /  0.0 mm
10:32 49.5 °F /  9.7 °C 46.9 °F /  8.3 °C 30 in /  1015.5 hPa West 6 mph /  9.7 km/h 10 mph /  16.1 km/h 91 % 0 in /  0.0 mm
10:42 49.6 °F /  9.8 °C 47.1 °F /  8.4 °C 30 in /  1015.5 hPa West 2 mph /  3.2 km/h 9 mph /  14.5 km/h 91 % 0 in /  0.0 mm
10:47 49.8 °F /  9.9 °C 46.9 °F /  8.3 °C 30 in /  1015.1 hPa WSW 3 mph /  4.8 km/h 8 mph /  12.9 km/h 90 % 0 in /  0.0 mm
10:52 49.8 °F /  9.9 °C 46.9 °F /  8.3 °C 30 in /  1015.5 hPa WSW 7 mph /  11.3 km/h 8 mph /  12.9 km/h 90 % 0 in /  0.0 mm
10:57 50 °F /  10.0 °C 47.1 °F /  8.4 °C 30 in /  1015.5 hPa West 5 mph /  8.0 km/h 8 mph /  12.9 km/h 90 % 0 in /  0.0 mm
11:02 50.2 °F /  10.1 °C 47.1 °F /  8.4 °C 30 in /  1015.5 hPa West 2 mph /  3.2 km/h 8 mph /  12.9 km/h 89 % 0 in /  0.0 mm
11:07 50.5 °F /  10.3 °C 47.5 °F /  8.6 °C 30 in /  1015.5 hPa SSE 2 mph /  3.2 km/h 8 mph /  12.9 km/h 89 % 0 in /  0.0 mm
11:12 50.7 °F /  10.4 °C 47.3 °F /  8.5 °C 30 in /  1015.1 hPa WSW 3 mph /  4.8 km/h 7 mph /  11.3 km/h 88 % 0 in /  0.0 mm
11:17 51.1 °F /  10.6 °C 48 °F /  8.9 °C 30 in /  1015.1 hPa West 2 mph /  3.2 km/h 8 mph /  12.9 km/h 89 % 0 in /  0.0 mm
11:22 51.6 °F /  10.9 °C 48.2 °F /  9.0 °C 30 in /  1015.1 hPa Calm   8 mph /  12.9 km/h 88 % 0 in /  0.0 mm
11:27 52 °F /  11.1 °C 48.2 °F /  9.0 °C 30 in /  1015.1 hPa West 4 mph /  6.4 km/h 5 mph /  8.0 km/h 87 % 0 in /  0.0 mm
11:32 51.6 °F /  10.9 °C 47.3 °F /  8.5 °C 30 in /  1015.1 hPa West 5 mph /  8.0 km/h 7 mph /  11.3 km/h 85 % 0 in /  0.0 mm
11:37 51.6 °F /  10.9 °C 47.3 °F /  8.5 °C 30 in /  1015.1 hPa West 2 mph /  3.2 km/h 7 mph /  11.3 km/h 85 % 0 in /  0.0 mm
11:42 51.6 °F /  10.9 °C 47.5 °F /  8.6 °C 30 in /  1015.1 hPa WNW 3 mph /  4.8 km/h 7 mph /  11.3 km/h 86 % 0 in /  0.0 mm
11:47 51.6 °F /  10.9 °C 46.9 °F /  8.3 °C 30 in /  1015.1 hPa West 5 mph /  8.0 km/h 7 mph /  11.3 km/h 84 % 0 in /  0.0 mm
11:52 52 °F /  11.1 °C 46.9 °F /  8.3 °C 30 in /  1015.1 hPa West 5 mph /  8.0 km/h 7 mph /  11.3 km/h 83 % 0 in /  0.0 mm
11:57 52.3 °F /  11.3 °C 47.3 °F /  8.5 °C 30 in /  1015.1 hPa West 3 mph /  4.8 km/h 7 mph /  11.3 km/h 83 % 0 in /  0.0 mm
12:02 52.5 °F /  11.4 °C 47.1 °F /  8.4 °C 30 in /  1015.1 hPa WSW 6 mph /  9.7 km/h 7 mph /  11.3 km/h 82 % 0 in /  0.0 mm
12:07 52.3 °F /  11.3 °C 46 °F /  7.8 °C 30 in /  1015.1 hPa West 5 mph /  8.0 km/h 9 mph /  14.5 km/h 79 % 0 in /  0.0 mm
12:12 52.3 °F /  11.3 °C 46.4 °F /  8.0 °C 30 in /  1015.1 hPa West 5 mph /  8.0 km/h 10 mph /  16.1 km/h 80 % 0 in /  0.0 mm
12:17 52.3 °F /  11.3 °C 46.8 °F /  8.2 °C 30 in /  1014.8 hPa West 5 mph /  8.0 km/h 10 mph /  16.1 km/h 81 % 0 in /  0.0 mm
12:22 52.5 °F /  11.4 °C 47.1 °F /  8.4 °C 30 in /  1014.8 hPa WSW 5 mph /  8.0 km/h 10 mph /  16.1 km/h 82 % 0 in /  0.0 mm
12:27 53.2 °F /  11.8 °C 47.3 °F /  8.5 °C 30 in /  1014.8 hPa WSW 2 mph /  3.2 km/h 7 mph /  11.3 km/h 80 % 0 in /  0.0 mm
12:32 54 °F /  12.2 °C 46.9 °F /  8.3 °C 30 in /  1014.8 hPa West 1 mph /  1.6 km/h 7 mph /  11.3 km/h 77 % 0 in /  0.0 mm
12:37 54.3 °F /  12.4 °C 46.9 °F /  8.3 °C 30 in /  1014.8 hPa WSW 7 mph /  11.3 km/h 7 mph /  11.3 km/h 76 % 0 in /  0.0 mm
12:42 54.9 °F /  12.7 °C 48.2 °F /  9.0 °C 30 in /  1014.8 hPa SW 7 mph /  11.3 km/h 11 mph /  17.7 km/h 78 % 0 in /  0.0 mm
12:47 54.9 °F /  12.7 °C 48.2 °F /  9.0 °C 30 in /  1014.4 hPa SSE 6 mph /  9.7 km/h 11 mph /  17.7 km/h 78 % 0 in /  0.0 mm
12:52 54.9 °F /  12.7 °C 48.6 °F /  9.2 °C 30 in /  1014.8 hPa SW 6 mph /  9.7 km/h 12 mph /  19.3 km/h 79 % 0 in /  0.0 mm
12:57 55 °F /  12.8 °C 48.4 °F /  9.1 °C 30 in /  1014.8 hPa SW 7 mph /  11.3 km/h 12 mph /  19.3 km/h 78 % 0 in /  0.0 mm
13:02 55 °F /  12.8 °C 47.7 °F /  8.7 °C 30 in /  1014.8 hPa Calm   12 mph /  19.3 km/h 76 % 0 in /  0.0 mm
13:12 55 °F /  12.8 °C 48 °F /  8.9 °C 30 in /  1014.4 hPa West 6 mph /  9.7 km/h 9 mph /  14.5 km/h 77 % 0 in /  0.0 mm
13:17 54.7 °F /  12.6 °C 47.3 °F /  8.5 °C 30 in /  1014.8 hPa West 5 mph /  8.0 km/h 8 mph /  12.9 km/h 76 % 0 in /  0.0 mm
13:22 55 °F /  12.8 °C 46.9 °F /  8.3 °C 30 in /  1014.4 hPa West 4 mph /  6.4 km/h 8 mph /  12.9 km/h 74 % 0 in /  0.0 mm
13:27 55 °F /  12.8 °C 46.6 °F /  8.1 °C 30 in /  1014.4 hPa West 1 mph /  1.6 km/h 8 mph /  12.9 km/h 73 % 0 in /  0.0 mm
13:32 55.6 °F /  13.1 °C 48.9 °F /  9.4 °C 30 in /  1014.4 hPa West 2 mph /  3.2 km/h 8 mph /  12.9 km/h 78 % 0 in /  0.0 mm
13:37 55.6 °F /  13.1 °C 47.8 °F /  8.8 °C 30 in /  1014.4 hPa SW 3 mph /  4.8 km/h 8 mph /  12.9 km/h 75 % 0 in /  0.0 mm
13:42 56.5 °F /  13.6 °C 46.4 °F /  8.0 °C 30 in /  1014.4 hPa SW 9 mph /  14.5 km/h 18 mph /  29.0 km/h 69 % 0 in /  0.0 mm
13:52 54.9 °F /  12.7 °C 46 °F /  7.8 °C 30 in /  1014.8 hPa WSW 7 mph /  11.3 km/h 18 mph /  29.0 km/h 72 % 0 in /  0.0 mm
13:57 54.5 °F /  12.5 °C 45.3 °F /  7.4 °C 30 in /  1014.8 hPa WSW 5 mph /  8.0 km/h 14 mph /  22.5 km/h 71 % 0 in /  0.0 mm
14:02 55.2 °F /  12.9 °C 45.7 °F /  7.6 °C 30 in /  1014.4 hPa West 11 mph /  17.7 km/h 12 mph /  19.3 km/h 70 % 0 in /  0.0 mm
14:12 56.1 °F /  13.4 °C 44.1 °F /  6.7 °C 30 in /  1014.4 hPa WNW 2 mph /  3.2 km/h 13 mph /  20.9 km/h 64 % 0 in /  0.0 mm
14:17 56.7 °F /  13.7 °C 44.2 °F /  6.8 °C 30 in /  1014.4 hPa NW 7 mph /  11.3 km/h 13 mph /  20.9 km/h 63 % 0 in /  0.0 mm
14:22 56.8 °F /  13.8 °C 43.9 °F /  6.6 °C 30 in /  1014.4 hPa WSW 8 mph /  12.9 km/h 11 mph /  17.7 km/h 62 % 0 in /  0.0 mm
14:27 56.8 °F /  13.8 °C 44.4 °F /  6.9 °C 30 in /  1014.4 hPa WSW 7 mph /  11.3 km/h 16 mph /  25.7 km/h 63 % 0 in /  0.0 mm
14:32 56.8 °F /  13.8 °C 44.8 °F /  7.1 °C 30 in /  1014.4 hPa WSW 5 mph /  8.0 km/h 16 mph /  25.7 km/h 64 % 0 in /  0.0 mm
14:42 57 °F /  13.9 °C 45.3 °F /  7.4 °C 30 in /  1014.4 hPa West 5 mph /  8.0 km/h 12 mph /  19.3 km/h 65 % 0 in /  0.0 mm
14:47 56.8 °F /  13.8 °C 43.9 °F /  6.6 °C 29.9 in /  1014.1 hPa West 4 mph /  6.4 km/h 10 mph /  16.1 km/h 62 % 0 in /  0.0 mm
14:52 56.7 °F /  13.7 °C 44.2 °F /  6.8 °C 29.9 in /  1014.1 hPa WSW 4 mph /  6.4 km/h 9 mph /  14.5 km/h 63 % 0 in /  0.0 mm
14:57 56.8 °F /  13.8 °C 43.2 °F /  6.2 °C 30 in /  1014.4 hPa WSW 7 mph /  11.3 km/h 11 mph /  17.7 km/h 60 % 0 in /  0.0 mm
15:02 56.8 °F /  13.8 °C 44.4 °F /  6.9 °C 29.9 in /  1014.1 hPa SSW 3 mph /  4.8 km/h 11 mph /  17.7 km/h 63 % 0 in /  0.0 mm
15:12 56.7 °F /  13.7 °C 44.2 °F /  6.8 °C 30 in /  1014.4 hPa WSW 7 mph /  11.3 km/h 14 mph /  22.5 km/h 63 % 0 in /  0.0 mm
15:22 54.3 °F /  12.4 °C 46.2 °F /  7.9 °C 30 in /  1014.4 hPa SW 9 mph /  14.5 km/h 22 mph /  35.4 km/h 74 % 0 in /  0.0 mm
15:32 52.9 °F /  11.6 °C 44.8 °F /  7.1 °C 30 in /  1014.4 hPa West 10 mph /  16.1 km/h 20 mph /  32.2 km/h 74 % 0 in /  0.0 mm
15:37 52.2 °F /  11.2 °C 44.8 °F /  7.1 °C 30 in /  1014.4 hPa WSW 10 mph /  16.1 km/h 17 mph /  27.4 km/h 76 % 0 in /  0.0 mm
15:42 51.6 °F /  10.9 °C 44.2 °F /  6.8 °C 30 in /  1014.4 hPa WSW 9 mph /  14.5 km/h 17 mph /  27.4 km/h 76 % 0 in /  0.0 mm
15:52 51.8 °F /  11.0 °C 44.8 °F /  7.1 °C 30 in /  1014.4 hPa SW 1 mph /  1.6 km/h 16 mph /  25.7 km/h 77 % 0.02 in /  0.5 mm
15:57 52.3 °F /  11.3 °C 44.2 °F /  6.8 °C 30 in /  1014.4 hPa WSW 3 mph /  4.8 km/h 11 mph /  17.7 km/h 74 % 0.02 in /  0.5 mm
16:02 53.1 °F /  11.7 °C 44.6 °F /  7.0 °C 30 in /  1014.4 hPa SW 3 mph /  4.8 km/h 7 mph /  11.3 km/h 73 % 0.02 in /  0.5 mm
16:12 54 °F /  12.2 °C 44.1 °F /  6.7 °C 29.9 in /  1014.1 hPa SW 4 mph /  6.4 km/h 5 mph /  8.0 km/h 69 % 0.02 in /  0.5 mm
16:17 54.9 °F /  12.7 °C 45 °F /  7.2 °C 29.9 in /  1014.1 hPa SW 5 mph /  8.0 km/h 7 mph /  11.3 km/h 69 % 0.02 in /  0.5 mm
16:22 55.4 °F /  13.0 °C 44.2 °F /  6.8 °C 29.9 in /  1014.1 hPa SSW 6 mph /  9.7 km/h 7 mph /  11.3 km/h 66 % 0.02 in /  0.5 mm
16:32 56.3 °F /  13.5 °C 45.5 °F /  7.5 °C 29.9 in /  1014.1 hPa WSW 6 mph /  9.7 km/h 12 mph /  19.3 km/h 67 % 0.02 in /  0.5 mm
16:42 57.2 °F /  14.0 °C 45.9 °F /  7.7 °C 29.9 in /  1014.1 hPa SW 12 mph /  19.3 km/h 13 mph /  20.9 km/h 66 % 0.02 in /  0.5 mm
16:47 57.4 °F /  14.1 °C 46 °F /  7.8 °C 29.9 in /  1014.1 hPa WSW 5 mph /  8.0 km/h 14 mph /  22.5 km/h 66 % 0.01 in /  0.3 mm
16:52 57.4 °F /  14.1 °C 46 °F /  7.8 °C 29.9 in /  1014.1 hPa West 6 mph /  9.7 km/h 14 mph /  22.5 km/h 66 % 0 in /  0.0 mm
17:02 57.6 °F /  14.2 °C 47.1 °F /  8.4 °C 29.9 in /  1014.1 hPa SW 11 mph /  17.7 km/h 12 mph /  19.3 km/h 68 % 0 in /  0.0 mm
17:07 57.9 °F /  14.4 °C 45.3 °F /  7.4 °C 29.9 in /  1014.1 hPa SW 10 mph /  16.1 km/h 13 mph /  20.9 km/h 63 % 0 in /  0.0 mm
17:12 57.7 °F /  14.3 °C 43.5 °F /  6.4 °C 29.9 in /  1014.1 hPa SW 6 mph /  9.7 km/h 13 mph /  20.9 km/h 59 % 0 in /  0.0 mm
17:17 57.6 °F /  14.2 °C 44.6 °F /  7.0 °C 29.9 in /  1014.1 hPa SSW 11 mph /  17.7 km/h 13 mph /  20.9 km/h 62 % 0 in /  0.0 mm
17:22 57.6 °F /  14.2 °C 44.6 °F /  7.0 °C 29.9 in /  1014.1 hPa WSW 8 mph /  12.9 km/h 15 mph /  24.1 km/h 62 % 0 in /  0.0 mm
17:32 57.7 °F /  14.3 °C 44.8 °F /  7.1 °C 29.9 in /  1014.1 hPa SSW 8 mph /  12.9 km/h 15 mph /  24.1 km/h 62 % 0 in /  0.0 mm
17:42 57 °F /  13.9 °C 45.9 °F /  7.7 °C 29.9 in /  1014.1 hPa WSW 7 mph /  11.3 km/h 13 mph /  20.9 km/h 66 % 0 in /  0.0 mm
17:47 57 °F /  13.9 °C 45.3 °F /  7.4 °C 29.9 in /  1013.8 hPa WSW 6 mph /  9.7 km/h 11 mph /  17.7 km/h 65 % 0 in /  0.0 mm
17:52 57.4 °F /  14.1 °C 45.3 °F /  7.4 °C 29.9 in /  1014.1 hPa SW 6 mph /  9.7 km/h 11 mph /  17.7 km/h 64 % 0 in /  0.0 mm
17:57 57 °F /  13.9 °C 45.9 °F /  7.7 °C 29.9 in /  1014.1 hPa West 8 mph /  12.9 km/h 14 mph /  22.5 km/h 66 % 0 in /  0.0 mm
18:02 57.4 °F /  14.1 °C 46.6 °F /  8.1 °C 29.9 in /  1014.1 hPa SW 6 mph /  9.7 km/h 14 mph /  22.5 km/h 67 % 0 in /  0.0 mm
18:07 57.6 °F /  14.2 °C 45.1 °F /  7.3 °C 29.9 in /  1014.1 hPa West 2 mph /  3.2 km/h 14 mph /  22.5 km/h 63 % 0 in /  0.0 mm
18:12 57.7 °F /  14.3 °C 44.8 °F /  7.1 °C 29.9 in /  1014.1 hPa SW 3 mph /  4.8 km/h 14 mph /  22.5 km/h 62 % 0 in /  0.0 mm
18:17 58.1 °F /  14.5 °C 44.8 °F /  7.1 °C 29.9 in /  1014.1 hPa West 3 mph /  4.8 km/h 14 mph /  22.5 km/h 61 % 0 in /  0.0 mm
18:22 57.7 °F /  14.3 °C 44.4 °F /  6.9 °C 29.9 in /  1014.1 hPa West 4 mph /  6.4 km/h 14 mph /  22.5 km/h 61 % 0 in /  0.0 mm
18:32 57.7 °F /  14.3 °C 46 °F /  7.8 °C 29.9 in /  1014.1 hPa NNW 4 mph /  6.4 km/h 9 mph /  14.5 km/h 65 % 0 in /  0.0 mm
18:37 56.8 °F /  13.8 °C 46.4 °F /  8.0 °C 29.9 in /  1014.1 hPa NW 1 mph /  1.6 km/h 7 mph /  11.3 km/h 68 % 0 in /  0.0 mm
18:42 56.1 °F /  13.4 °C 47.3 °F /  8.5 °C 29.9 in /  1014.1 hPa NW 1 mph /  1.6 km/h 6 mph /  9.7 km/h 72 % 0 in /  0.0 mm
18:52 55 °F /  12.8 °C 46.9 °F /  8.3 °C 30 in /  1014.4 hPa NNW 5 mph /  8.0 km/h 5 mph /  8.0 km/h 74 % 0 in /  0.0 mm
18:57 54.9 °F /  12.7 °C 47.5 °F /  8.6 °C 30 in /  1014.4 hPa North 5 mph /  8.0 km/h 6 mph /  9.7 km/h 76 % 0 in /  0.0 mm
19:02 54.7 °F /  12.6 °C 47.7 °F /  8.7 °C 30 in /  1014.4 hPa NNE 1 mph /  1.6 km/h 6 mph /  9.7 km/h 77 % 0 in /  0.0 mm
19:12 54.7 °F /  12.6 °C 47.3 °F /  8.5 °C 30 in /  1014.4 hPa Calm   5 mph /  8.0 km/h 76 % 0 in /  0.0 mm
19:17 54.7 °F /  12.6 °C 47.3 °F /  8.5 °C 30 in /  1014.4 hPa Calm   4 mph /  6.4 km/h 76 % 0 in /  0.0 mm
19:22 54.9 °F /  12.7 °C 47.8 °F /  8.8 °C 30 in /  1014.4 hPa NNW 1 mph /  1.6 km/h 4 mph /  6.4 km/h 77 % 0 in /  0.0 mm
19:32 54.7 °F /  12.6 °C 47.3 °F /  8.5 °C 30 in /  1014.4 hPa Calm   3 mph /  4.8 km/h 76 % 0 in /  0.0 mm
19:37 54.7 °F /  12.6 °C 47.3 °F /  8.5 °C 30 in /  1014.8 hPa West 1 mph /  1.6 km/h 3 mph /  4.8 km/h 76 % 0 in /  0.0 mm
19:42 54.5 °F /  12.5 °C 47.1 °F /  8.4 °C 30 in /  1014.8 hPa North 1 mph /  1.6 km/h 3 mph /  4.8 km/h 76 % 0 in /  0.0 mm
19:47 54.3 °F /  12.4 °C 46.9 °F /  8.3 °C 30 in /  1014.8 hPa Calm   3 mph /  4.8 km/h 76 % 0 in /  0.0 mm
19:52 54.1 °F /  12.3 °C 46.8 °F /  8.2 °C 30 in /  1014.8 hPa NNW 2 mph /  3.2 km/h 3 mph /  4.8 km/h 76 % 0 in /  0.0 mm
20:02 53.6 °F /  12.0 °C 46.6 °F /  8.1 °C 30 in /  1014.8 hPa WNW 1 mph /  1.6 km/h 3 mph /  4.8 km/h 77 % 0 in /  0.0 mm
20:12 53.1 °F /  11.7 °C 46 °F /  7.8 °C 30 in /  1015.1 hPa WNW 3 mph /  4.8 km/h 3 mph /  4.8 km/h 77 % 0 in /  0.0 mm
20:17 52.9 °F /  11.6 °C 45.9 °F /  7.7 °C 30 in /  1015.1 hPa WSW 4 mph /  6.4 km/h 5 mph /  8.0 km/h 77 % 0 in /  0.0 mm
20:22 53.1 °F /  11.7 °C 45.7 °F /  7.6 °C 30 in /  1015.1 hPa SW 3 mph /  4.8 km/h 9 mph /  14.5 km/h 76 % 0 in /  0.0 mm
20:27 52.9 °F /  11.6 °C 45.1 °F /  7.3 °C 30 in /  1015.1 hPa WSW 4 mph /  6.4 km/h 9 mph /  14.5 km/h 75 % 0 in /  0.0 mm
20:32 52.5 °F /  11.4 °C 44.1 °F /  6.7 °C 30 in /  1015.1 hPa WSW 2 mph /  3.2 km/h 9 mph /  14.5 km/h 73 % 0 in /  0.0 mm
20:37 52.5 °F /  11.4 °C 43.3 °F /  6.3 °C 30 in /  1015.1 hPa SW 3 mph /  4.8 km/h 6 mph /  9.7 km/h 71 % 0 in /  0.0 mm
20:42 52.5 °F /  11.4 °C 43.3 °F /  6.3 °C 30 in /  1015.1 hPa SW 1 mph /  1.6 km/h 6 mph /  9.7 km/h 71 % 0 in /  0.0 mm
20:47 52.3 °F /  11.3 °C 42.8 °F /  6.0 °C 30 in /  1015.1 hPa SW 1 mph /  1.6 km/h 6 mph /  9.7 km/h 70 % 0 in /  0.0 mm
20:52 52.2 °F /  11.2 °C 43.7 °F /  6.5 °C 30 in /  1015.1 hPa Calm   6 mph /  9.7 km/h 73 % 0 in /  0.0 mm
21:02 51.8 °F /  11.0 °C 43 °F /  6.1 °C 30 in /  1015.5 hPa Calm   2 mph /  3.2 km/h 72 % 0 in /  0.0 mm
21:12 51.1 °F /  10.6 °C 43.5 °F /  6.4 °C 30 in /  1015.5 hPa Calm   1 mph /  1.6 km/h 75 % 0 in /  0.0 mm
21:17 50.7 °F /  10.4 °C 43.2 °F /  6.2 °C 30 in /  1015.5 hPa Calm   1 mph /  1.6 km/h 75 % 0 in /  0.0 mm
21:22 50.5 °F /  10.3 °C 43.5 °F /  6.4 °C 30 in /  1015.5 hPa Calm   1 mph /  1.6 km/h 77 % 0 in /  0.0 mm
21:32 50.5 °F /  10.3 °C 43.3 °F /  6.3 °C 30 in /  1015.5 hPa Calm   1 mph /  1.6 km/h 76 % 0 in /  0.0 mm
21:42 50.2 °F /  10.1 °C 43.3 °F /  6.3 °C 30 in /  1015.8 hPa Calm   1 mph /  1.6 km/h 77 % 0 in /  0.0 mm
21:52 49.1 °F /  9.5 °C 43.2 °F /  6.2 °C 30 in /  1015.8 hPa Calm   1 mph /  1.6 km/h 80 % 0 in /  0.0 mm
22:02 48.9 °F /  9.4 °C 43.3 °F /  6.3 °C 30 in /  1015.8 hPa Calm   1 mph /  1.6 km/h 81 % 0 in /  0.0 mm
22:12 49.1 °F /  9.5 °C 43.2 °F /  6.2 °C 30 in /  1016.1 hPa Calm   1 mph /  1.6 km/h 80 % 0 in /  0.0 mm
22:17 48.9 °F /  9.4 °C 43.3 °F /  6.3 °C 30 in /  1016.1 hPa Calm   1 mph /  1.6 km/h 81 % 0 in /  0.0 mm
22:27 48.7 °F /  9.3 °C 43.5 °F /  6.4 °C 30 in /  1016.1 hPa Calm   1 mph /  1.6 km/h 82 % 0 in /  0.0 mm
22:32 48.6 °F /  9.2 °C 43.3 °F /  6.3 °C 30 in /  1016.1 hPa Calm   1 mph /  1.6 km/h 82 % 0 in /  0.0 mm
22:37 48.4 °F /  9.1 °C 43.5 °F /  6.4 °C 30 in /  1016.1 hPa Calm   1 mph /  1.6 km/h 83 % 0 in /  0.0 mm
22:42 48.4 °F /  9.1 °C 44.1 °F /  6.7 °C 30 in /  1016.1 hPa NE 2 mph /  3.2 km/h 2 mph /  3.2 km/h 85 % 0 in /  0.0 mm
22:47 48 °F /  8.9 °C 44.1 °F /  6.7 °C 30 in /  1016.1 hPa NE 1 mph /  1.6 km/h 2 mph /  3.2 km/h 86 % 0 in /  0.0 mm
22:52 48 °F /  8.9 °C 44.1 °F /  6.7 °C 30 in /  1016.1 hPa ENE 2 mph /  3.2 km/h 2 mph /  3.2 km/h 86 % 0 in /  0.0 mm
22:57 48 °F /  8.9 °C 44.1 °F /  6.7 °C 30 in /  1016.1 hPa Calm   2 mph /  3.2 km/h 86 % 0 in /  0.0 mm
23:02 48 °F /  8.9 °C 44.4 °F /  6.9 °C 30 in /  1016.1 hPa Calm   2 mph /  3.2 km/h 87 % 0 in /  0.0 mm
23:07 48 °F /  8.9 °C 44.1 °F /  6.7 °C 30 in /  1016.1 hPa Calm   2 mph /  3.2 km/h 86 % 0 in /  0.0 mm
23:12 47.8 °F /  8.8 °C 43.9 °F /  6.6 °C 30 in /  1016.1 hPa Calm   1 mph /  1.6 km/h 86 % 0 in /  0.0 mm
23:17 47.7 °F /  8.7 °C 44.1 °F /  6.7 °C 30 in /  1016.5 hPa Calm     87 % 0 in /  0.0 mm
23:22 47.5 °F /  8.6 °C 43.9 °F /  6.6 °C 30 in /  1016.5 hPa Calm     87 % 0 in /  0.0 mm
23:32 47.1 °F /  8.4 °C 43.7 °F /  6.5 °C 30 in /  1016.5 hPa Calm     88 % 0 in /  0.0 mm
23:42 47.1 °F /  8.4 °C 43.5 °F /  6.4 °C 30 in /  1016.5 hPa Calm     87 % 0 in /  0.0 mm
23:47 46.9 °F /  8.3 °C 43.5 °F /  6.4 °C 30 in /  1016.5 hPa Calm     88 % 0 in /  0.0 mm
23:52 46.8 °F /  8.2 °C 43.3 °F /  6.3 °C 30 in /  1016.5 hPa Calm     88 % 0 in /  0.0 mm
23:57 46.6 °F /  8.1 °C 43.5 °F /  6.4 °C 30 in /  1016.5 hPa Calm     89 % 0 in /  0.0 mm
Meteo18
Compliments of Weather Underground - 4 mb

Script developed by  Jim McMurry - jmcmurry@mwt.net Adapted for the template by  Wim van der Kuil - Leuven-Template.eu

You find our weather info also at:

European Weather Network

Weather Underground

Equipment we use:

Weather-station
Davis Vue

Weather-program
Meteohub

Weather-server
Raspberry PI 2 B+

Provider
1 and 1

Davis Vue

Meteohub

Raspberry PI 2 B+

1 and 1